createdAt,value
2022-10-03T00:01:47.645Z,15.30
2022-10-03T00:04:46.542Z,14.75
2022-10-03T00:07:37.291Z,15.15
2022-10-03T00:10:24.538Z,15.35
2022-10-03T00:13:21.461Z,14.32
2022-10-03T00:16:11.131Z,15.52
2022-10-03T00:18:58.430Z,13.48
2022-10-03T00:21:48.656Z,13.65
2022-10-03T00:24:55.800Z,13.00
2022-10-03T00:27:41.977Z,12.45
2022-10-03T00:30:31.458Z,13.13
2022-10-03T00:33:28.874Z,13.00
2022-10-03T00:36:36.063Z,12.57
2022-10-03T00:39:31.970Z,11.35
2022-10-03T00:42:45.324Z,12.45
2022-10-03T00:45:20.117Z,12.52
2022-10-03T00:48:13.190Z,12.05
2022-10-03T00:51:13.509Z,11.93
2022-10-03T00:53:50.073Z,10.95
2022-10-03T00:56:40.000Z,11.85
2022-10-03T00:59:39.090Z,11.52
2022-10-03T01:02:44.353Z,11.60
2022-10-03T01:05:43.468Z,12.35
2022-10-03T01:08:42.513Z,10.73
2022-10-03T01:11:30.429Z,11.27
2022-10-03T01:14:34.593Z,11.80
2022-10-03T01:17:20.486Z,12.27
2022-10-03T01:19:54.815Z,11.13
2022-10-03T01:22:44.553Z,11.23
2022-10-03T01:25:51.464Z,12.13
2022-10-03T01:28:49.420Z,12.50
2022-10-03T01:31:26.059Z,12.80
2022-10-03T01:34:01.722Z,12.35
2022-10-03T01:36:35.443Z,13.25
2022-10-03T01:39:17.774Z,12.93
2022-10-03T01:42:07.844Z,13.13
2022-10-03T01:45:03.346Z,12.85
2022-10-03T01:47:39.050Z,13.43
2022-10-03T01:50:32.009Z,13.68
2022-10-03T01:53:09.651Z,14.52
2022-10-03T01:56:07.708Z,14.10
2022-10-03T01:59:13.838Z,13.20
2022-10-03T02:01:50.125Z,12.27
2022-10-03T02:04:29.566Z,13.40
2022-10-03T02:07:22.350Z,12.13
2022-10-03T02:12:28.324Z,12.65
2022-10-03T02:15:08.992Z,11.80
2022-10-03T02:17:55.589Z,13.07
2022-10-03T02:20:48.700Z,11.65
2022-10-03T02:23:28.513Z,12.65
2022-10-03T02:26:27.313Z,10.93
2022-10-03T02:29:09.108Z,10.60
2022-10-03T02:32:15.354Z,11.20
2022-10-03T02:35:08.220Z,10.00
2022-10-03T02:37:47.423Z,9.70
2022-10-03T02:41:01.399Z,9.55
2022-10-03T02:43:48.780Z,10.63
2022-10-03T02:46:41.933Z,11.90
2022-10-03T02:52:24.284Z,11.85
2022-10-03T02:55:29.400Z,11.63
2022-10-03T02:58:26.572Z,11.82
2022-10-03T03:01:13.835Z,11.60
2022-10-03T03:03:54.271Z,10.70
2022-10-03T03:06:33.500Z,11.25
2022-10-03T03:09:29.894Z,11.52
2022-10-03T03:12:24.187Z,11.38
2022-10-03T03:15:29.334Z,12.88
2022-10-03T03:18:29.478Z,11.52
2022-10-03T03:21:04.009Z,11.50
2022-10-03T03:23:48.145Z,11.90
2022-10-03T03:26:57.829Z,12.05
2022-10-03T03:29:42.559Z,11.68
2022-10-03T03:32:31.200Z,11.95
2022-10-03T03:35:07.667Z,12.73
2022-10-03T03:38:05.993Z,12.18
2022-10-03T03:40:43.409Z,12.90
2022-10-03T03:43:30.475Z,12.95
2022-10-03T03:46:19.983Z,14.32
2022-10-03T03:48:54.431Z,13.98
2022-10-03T03:51:25.004Z,13.57
2022-10-03T03:54:06.109Z,15.30
2022-10-03T03:57:04.898Z,13.95
2022-10-03T03:59:42.243Z,14.38
2022-10-03T04:02:29.655Z,14.68
2022-10-03T04:05:15.260Z,14.40
2022-10-03T04:08:12.863Z,14.02
2022-10-03T04:10:45.903Z,14.10
2022-10-03T04:13:40.247Z,14.13
2022-10-03T04:16:44.160Z,13.80
2022-10-03T04:19:13.789Z,13.43
2022-10-03T04:22:03.109Z,13.90
2022-10-03T04:24:57.357Z,12.85
2022-10-03T04:27:56.649Z,13.48
2022-10-03T04:30:49.110Z,14.02
2022-10-03T04:33:54.999Z,13.65
2022-10-03T04:36:42.194Z,13.38
2022-10-03T04:39:28.437Z,13.13
2022-10-03T04:42:18.390Z,13.27
2022-10-03T04:45:05.149Z,13.65
2022-10-03T04:47:50.004Z,12.85
2022-10-03T04:50:36.185Z,13.13
2022-10-03T04:53:43.266Z,12.73
2022-10-03T04:56:30.288Z,12.32
2022-10-03T04:59:23.877Z,12.70
2022-10-03T05:02:03.959Z,12.52
2022-10-03T05:05:13.377Z,12.25
2022-10-03T05:08:15.917Z,11.95
2022-10-03T05:11:13.114Z,11.57
2022-10-03T05:14:19.129Z,12.98
2022-10-03T05:17:25.182Z,11.55
2022-10-03T05:20:27.349Z,11.00
2022-10-03T05:23:12.671Z,11.40
2022-10-03T05:26:32.356Z,10.85
2022-10-03T05:29:19.544Z,10.30
2022-10-03T05:32:17.967Z,10.18
2022-10-03T05:34:55.582Z,9.85
2022-10-03T05:38:05.549Z,9.80
2022-10-03T05:40:36.947Z,9.45
2022-10-03T05:43:28.544Z,9.30
2022-10-03T05:46:22.274Z,8.65
2022-10-03T05:49:29.321Z,7.80
2022-10-03T05:52:04.999Z,7.45
2022-10-03T05:54:48.320Z,7.78
2022-10-03T05:57:27.797Z,7.13
2022-10-03T06:00:21.092Z,7.15
2022-10-03T06:03:11.388Z,6.45
2022-10-03T06:05:42.159Z,6.07
2022-10-03T06:08:42.170Z,5.38
2022-10-03T06:11:34.714Z,5.45
2022-10-03T06:14:27.699Z,5.80
2022-10-03T06:17:05.085Z,6.13
2022-10-03T06:19:55.363Z,5.75
2022-10-03T06:22:42.951Z,6.00
2022-10-03T06:25:48.982Z,5.35
2022-10-03T06:28:20.304Z,5.57
2022-10-03T06:31:19.413Z,5.53
2022-10-03T06:34:17.905Z,5.07
2022-10-03T06:36:45.898Z,5.03
2022-10-03T06:39:43.775Z,5.35
2022-10-03T06:42:36.708Z,5.55
2022-10-03T06:45:16.726Z,5.15
2022-10-03T06:48:00.953Z,5.10
2022-10-03T06:51:00.336Z,5.22
2022-10-03T06:53:43.519Z,3.55
2022-10-03T06:56:50.233Z,4.88
2022-10-03T06:59:41.171Z,4.63
2022-10-03T07:02:46.538Z,3.92
2022-10-03T07:05:52.313Z,3.80
2022-10-03T07:08:45.528Z,3.88
2022-10-03T07:11:39.154Z,3.60
2022-10-03T07:14:38.934Z,3.33
2022-10-03T07:17:19.509Z,3.40
2022-10-03T07:20:20.662Z,2.85
2022-10-03T07:23:22.524Z,2.50
2022-10-03T07:26:26.987Z,2.85
2022-10-03T07:29:19.250Z,2.60
2022-10-03T07:32:25.098Z,2.65
2022-10-03T07:35:53.901Z,2.63
2022-10-03T07:39:01.180Z,2.30
2022-10-03T07:41:42.371Z,3.00
2022-10-03T07:44:19.420Z,2.10
2022-10-03T07:47:18.907Z,2.55
2022-10-03T07:49:56.643Z,2.55
2022-10-03T07:52:26.499Z,2.25
2022-10-03T07:55:08.592Z,2.58
2022-10-03T07:57:45.827Z,2.10
2022-10-03T08:00:30.277Z,2.80
2022-10-03T08:03:36.618Z,2.33
2022-10-03T08:06:24.882Z,2.10
2022-10-03T08:09:19.892Z,2.40
2022-10-03T08:12:25.103Z,2.67
2022-10-03T08:15:22.212Z,2.75
2022-10-03T08:18:03.525Z,2.45
2022-10-03T08:20:48.910Z,2.50
2022-10-03T08:23:29.324Z,2.53
2022-10-03T08:26:13.209Z,2.50
2022-10-03T08:29:26.581Z,2.40
2022-10-03T08:32:05.401Z,3.25
2022-10-03T08:34:59.818Z,2.13
2022-10-03T08:38:05.442Z,2.45
2022-10-03T08:40:45.869Z,2.50
2022-10-03T08:43:42.360Z,3.17
2022-10-03T08:46:19.407Z,2.67
2022-10-03T08:48:56.848Z,2.92
2022-10-03T08:51:43.338Z,2.97
2022-10-03T08:54:51.796Z,3.38
2022-10-03T08:57:25.012Z,3.25
2022-10-03T09:00:31.501Z,3.30
2022-10-03T09:03:31.848Z,3.63
2022-10-03T09:06:24.547Z,3.30
2022-10-03T09:09:14.027Z,3.08
2022-10-03T09:12:15.692Z,3.03
2022-10-03T09:15:12.228Z,3.72
2022-10-03T09:18:18.954Z,3.75
2022-10-03T09:21:07.479Z,3.72
2022-10-03T09:24:03.378Z,3.78
2022-10-03T09:26:49.929Z,3.95
2022-10-03T09:29:55.642Z,4.30
2022-10-03T09:32:43.315Z,3.15
2022-10-03T09:35:52.335Z,3.10
2022-10-03T09:38:46.099Z,3.75
2022-10-03T09:41:52.624Z,4.18
2022-10-03T09:44:57.952Z,3.80
2022-10-03T09:47:39.281Z,3.63
2022-10-03T09:50:38.480Z,4.53
2022-10-03T09:53:49.891Z,3.80
2022-10-03T09:56:44.902Z,3.63
2022-10-03T09:59:31.881Z,3.92
2022-10-03T10:02:13.246Z,3.35
2022-10-03T10:04:56.343Z,3.58
2022-10-03T10:07:47.071Z,4.47
2022-10-03T10:10:31.720Z,3.70
2022-10-03T10:13:56.049Z,3.83
2022-10-03T10:16:52.799Z,4.30
2022-10-03T10:20:05.162Z,4.72
2022-10-03T10:22:52.456Z,4.40
2022-10-03T10:25:58.816Z,4.00
2022-10-03T10:29:05.493Z,4.72
2022-10-03T10:31:53.243Z,4.22
2022-10-03T10:34:52.230Z,4.40
2022-10-03T10:38:03.172Z,3.10
2022-10-03T10:41:03.589Z,3.95
2022-10-03T10:43:51.340Z,2.05
2022-10-03T10:46:47.619Z,2.17
2022-10-03T10:49:38.982Z,2.00
2022-10-03T10:52:36.370Z,1.38
2022-10-03T10:55:25.679Z,1.30
2022-10-03T10:58:23.518Z,1.30
2022-10-03T11:01:28.871Z,1.60
2022-10-03T11:04:18.849Z,1.23
2022-10-03T11:06:53.671Z,1.30
2022-10-03T11:09:59.528Z,1.08
2022-10-03T11:12:42.197Z,0.90
2022-10-03T11:15:48.434Z,1.25
2022-10-03T11:18:18.855Z,0.82
2022-10-03T11:21:24.747Z,1.00
2022-10-03T11:24:30.161Z,1.00
2022-10-03T11:27:23.173Z,0.80
2022-10-03T11:30:16.128Z,1.17
2022-10-03T11:33:14.209Z,1.00
2022-10-03T11:36:20.341Z,1.05
2022-10-03T11:38:54.209Z,1.10
2022-10-03T11:41:41.294Z,1.73
2022-10-03T11:44:40.571Z,0.95
2022-10-03T11:47:33.262Z,1.17
2022-10-03T11:50:45.831Z,1.27
2022-10-03T11:53:27.290Z,1.40
2022-10-03T11:55:55.754Z,1.35
2022-10-03T11:58:42.018Z,1.25
2022-10-03T12:01:16.505Z,1.10
2022-10-03T12:04:09.267Z,1.05
2022-10-03T12:07:17.642Z,0.85
2022-10-03T12:10:08.724Z,1.40
2022-10-03T12:12:50.682Z,1.10
2022-10-03T12:15:35.028Z,1.10
2022-10-03T12:18:21.908Z,0.90
2022-10-03T12:21:09.139Z,1.27
2022-10-03T12:23:43.659Z,1.40
2022-10-03T12:26:17.764Z,1.10
2022-10-03T12:28:52.709Z,1.33
2022-10-03T12:31:46.713Z,0.90
2022-10-03T12:34:33.421Z,1.10
2022-10-03T12:37:31.544Z,0.98
2022-10-03T12:40:16.154Z,1.10
2022-10-03T12:43:05.499Z,1.88
2022-10-03T12:45:44.517Z,0.95
2022-10-03T12:48:43.097Z,1.00
2022-10-03T12:51:42.783Z,0.90
2022-10-03T12:54:45.089Z,0.90
2022-10-03T12:57:51.080Z,0.88
2022-10-03T13:00:21.693Z,0.93
2022-10-03T13:03:04.719Z,1.00
2022-10-03T13:05:44.910Z,1.15
2022-10-03T13:08:51.858Z,0.90
2022-10-03T13:11:58.745Z,1.10
2022-10-03T13:14:37.029Z,1.05
2022-10-03T13:17:27.154Z,1.15
2022-10-03T13:20:00.883Z,0.70
2022-10-03T13:22:35.228Z,0.90
2022-10-03T13:25:17.237Z,1.00
2022-10-03T13:27:52.240Z,1.00
2022-10-03T13:30:24.850Z,0.93
2022-10-03T13:32:58.342Z,0.90
2022-10-03T13:35:58.708Z,1.02
2022-10-03T13:38:38.126Z,0.90
2022-10-03T13:41:12.353Z,1.85
2022-10-03T13:43:45.143Z,1.35
2022-10-03T13:46:17.697Z,0.80
2022-10-03T13:48:55.124Z,0.98
2022-10-03T13:51:44.825Z,0.98
2022-10-03T13:54:39.999Z,0.82
2022-10-03T13:57:16.808Z,1.13
2022-10-03T14:00:13.560Z,1.05
2022-10-03T14:03:18.333Z,1.00
2022-10-03T14:06:11.362Z,1.25
2022-10-03T14:11:44.114Z,1.00
2022-10-03T14:14:35.216Z,0.88
2022-10-03T14:17:31.939Z,1.30
2022-10-03T14:20:19.861Z,0.75
2022-10-03T14:23:06.483Z,0.70
2022-10-03T14:25:41.663Z,0.90
2022-10-03T14:28:41.780Z,1.20
2022-10-03T14:31:19.143Z,1.30
2022-10-03T14:33:56.782Z,0.90
2022-10-03T14:36:43.258Z,1.02
2022-10-03T14:39:37.407Z,1.00
2022-10-03T14:42:37.629Z,0.80
2022-10-03T14:45:13.854Z,0.85
2022-10-03T14:47:43.600Z,0.73
2022-10-03T14:50:24.402Z,0.93
2022-10-03T14:53:02.551Z,0.90
2022-10-03T14:55:40.035Z,0.82
2022-10-03T14:58:29.749Z,0.80
2022-10-03T15:01:25.020Z,0.80
2022-10-03T15:04:32.596Z,0.77
2022-10-03T15:07:05.500Z,1.00
2022-10-03T15:09:42.803Z,0.90
2022-10-03T15:12:16.433Z,1.02
2022-10-03T15:14:48.651Z,1.10
2022-10-03T15:17:23.261Z,0.90
2022-10-03T15:19:56.523Z,0.73
2022-10-03T15:22:42.918Z,0.68
2022-10-03T15:25:18.596Z,2.22
2022-10-03T15:27:50.279Z,22.58
2022-10-03T15:30:27.881Z,5.18
2022-10-03T15:33:16.942Z,26.10
2022-10-03T15:35:49.781Z,16.67
2022-10-03T15:38:27.349Z,14.75
2022-10-03T15:41:20.365Z,16.90
2022-10-03T15:43:52.836Z,9.32
2022-10-03T15:46:40.285Z,9.70
2022-10-03T15:49:12.211Z,3.60
2022-10-03T15:51:40.728Z,4.60
2022-10-03T15:54:13.338Z,3.75
2022-10-03T15:56:48.859Z,2.22
2022-10-03T15:59:45.870Z,2.00
2022-10-03T16:02:21.524Z,2.47
2022-10-03T16:04:54.977Z,6.80
2022-10-03T16:07:42.324Z,7.68
2022-10-03T16:10:34.770Z,6.50
2022-10-03T16:13:15.400Z,6.13
2022-10-03T16:16:10.703Z,3.08
2022-10-03T16:18:57.234Z,3.25
2022-10-03T16:21:45.238Z,2.03
2022-10-03T16:24:21.865Z,3.08
2022-10-03T16:26:56.532Z,2.80
2022-10-03T16:29:29.535Z,1.98
2022-10-03T16:32:09.581Z,1.85
2022-10-03T16:34:43.675Z,1.70
2022-10-03T16:37:26.574Z,1.90
2022-10-03T16:40:03.773Z,2.22
2022-10-03T16:42:46.044Z,2.42
2022-10-03T16:45:38.152Z,2.90
2022-10-03T16:48:31.298Z,2.63
2022-10-03T16:51:00.024Z,3.63
2022-10-03T16:53:29.578Z,3.58
2022-10-03T16:56:18.305Z,2.92
2022-10-03T16:58:55.715Z,2.70
2022-10-03T17:01:42.982Z,2.13
2022-10-03T17:04:33.230Z,2.15
2022-10-03T17:07:04.725Z,1.65
2022-10-03T17:09:55.435Z,1.70
2022-10-03T17:12:30.453Z,2.50
2022-10-03T17:15:08.170Z,3.17
2022-10-03T17:18:03.155Z,2.72
2022-10-03T17:20:44.529Z,2.92
2022-10-03T17:23:27.289Z,2.60
2022-10-03T17:26:05.587Z,3.80
2022-10-03T17:29:11.429Z,3.00
2022-10-03T17:31:46.036Z,3.17
2022-10-03T17:34:17.512Z,3.40
2022-10-03T17:37:24.617Z,2.88
2022-10-03T17:40:11.882Z,2.38
2022-10-03T17:42:41.684Z,4.97
2022-10-03T17:45:17.448Z,3.03
2022-10-03T17:48:11.424Z,3.65
2022-10-03T17:51:15.368Z,2.85
2022-10-03T17:53:48.153Z,3.30
2022-10-03T17:56:21.391Z,3.72
2022-10-03T17:59:03.621Z,4.05
2022-10-03T18:01:37.830Z,3.70
2022-10-03T18:04:11.862Z,3.83
2022-10-03T18:06:43.563Z,3.30
2022-10-03T18:09:17.598Z,4.15
2022-10-03T18:11:50.377Z,4.70
2022-10-03T18:15:17.428Z,4.28
2022-10-03T18:17:49.459Z,5.03
2022-10-03T18:20:42.197Z,3.72
2022-10-03T18:23:53.216Z,3.92
2022-10-03T18:26:37.136Z,4.05
2022-10-03T18:29:11.703Z,9.35
2022-10-03T18:31:45.491Z,20.50
2022-10-03T18:34:20.697Z,6.32
2022-10-03T18:36:51.424Z,21.98
2022-10-03T18:39:20.236Z,15.93
2022-10-03T18:41:53.977Z,4.20
2022-10-03T18:44:24.376Z,9.57
2022-10-03T18:47:16.637Z,5.25
2022-10-03T18:49:57.682Z,3.53
2022-10-03T18:52:32.633Z,4.70
2022-10-03T18:55:34.726Z,4.50
2022-10-03T18:58:13.986Z,4.72
2022-10-03T19:01:01.689Z,3.65
2022-10-03T19:03:39.708Z,3.80
2022-10-03T19:06:30.038Z,3.70
2022-10-03T19:09:09.681Z,4.65
2022-10-03T19:11:45.322Z,5.00
2022-10-03T19:14:25.789Z,4.03
2022-10-03T19:17:23.579Z,4.10
2022-10-03T19:19:59.042Z,3.42
2022-10-03T19:22:28.532Z,3.88
2022-10-03T19:24:59.500Z,4.55
2022-10-03T19:27:52.657Z,4.00
2022-10-03T19:30:26.418Z,3.58
2022-10-03T19:32:59.715Z,3.45
2022-10-03T19:35:30.384Z,4.75
2022-10-03T19:38:28.289Z,4.30
2022-10-03T19:41:01.945Z,4.30
2022-10-03T19:43:43.416Z,4.68
2022-10-03T19:46:15.347Z,4.82
2022-10-03T19:48:52.283Z,4.63
2022-10-03T19:51:25.623Z,5.07
2022-10-03T19:53:57.623Z,5.20
2022-10-03T19:56:31.088Z,4.50
2022-10-03T19:59:06.457Z,5.68
2022-10-03T20:01:49.091Z,4.80
2022-10-03T20:04:36.479Z,5.47
2022-10-03T20:07:13.130Z,4.57
2022-10-03T20:09:56.497Z,5.00
2022-10-03T20:12:29.492Z,5.32
2022-10-03T20:15:18.369Z,5.90
2022-10-03T20:17:47.718Z,6.13
2022-10-03T20:20:23.497Z,6.68
2022-10-03T20:22:55.070Z,6.00
2022-10-03T20:25:44.093Z,6.95
2022-10-03T20:28:21.839Z,6.60
2022-10-03T20:30:53.132Z,6.90
2022-10-03T20:33:25.732Z,6.22
2022-10-03T20:36:01.403Z,7.00
2022-10-03T20:39:07.399Z,7.32
2022-10-03T20:41:35.717Z,6.93
2022-10-03T20:44:15.444Z,7.32
2022-10-03T20:47:06.568Z,8.57
2022-10-03T20:49:48.926Z,7.65
2022-10-03T20:52:22.531Z,8.00
2022-10-03T20:54:53.082Z,8.07
2022-10-03T20:57:33.135Z,6.90
2022-10-03T21:00:10.460Z,7.80
2022-10-03T21:02:51.571Z,8.38
2022-10-03T21:05:24.434Z,7.70
2022-10-03T21:07:56.790Z,8.17
2022-10-03T21:10:37.308Z,7.95
2022-10-03T21:13:10.404Z,7.47
2022-10-03T21:15:54.016Z,8.75
2022-10-03T21:18:27.572Z,8.10
2022-10-03T21:21:20.817Z,8.30
2022-10-03T21:24:11.346Z,8.55
2022-10-03T21:27:11.457Z,8.10
2022-10-03T21:29:41.008Z,7.80
2022-10-03T21:32:27.693Z,8.43
2022-10-03T21:35:01.376Z,8.15
2022-10-03T21:38:07.832Z,7.93
2022-10-03T21:40:54.614Z,8.40
2022-10-03T21:43:48.331Z,8.23
2022-10-03T21:46:29.831Z,8.30
2022-10-03T21:49:02.188Z,8.50
2022-10-03T21:51:58.860Z,9.55
2022-10-03T21:55:04.561Z,8.13
2022-10-03T21:57:55.595Z,7.93
2022-10-03T22:00:30.360Z,8.20
2022-10-03T22:03:08.557Z,8.60
2022-10-03T22:05:49.148Z,8.05
2022-10-03T22:08:26.517Z,8.32
2022-10-03T22:11:13.964Z,8.57
2022-10-03T22:13:47.542Z,8.57
2022-10-03T22:16:51.311Z,9.10
2022-10-03T22:19:22.877Z,8.97
2022-10-03T22:22:00.419Z,8.75
2022-10-03T22:25:05.361Z,9.27
2022-10-03T22:27:50.131Z,8.82
2022-10-03T22:30:20.230Z,8.75
2022-10-03T22:33:14.610Z,8.63
2022-10-03T22:35:52.003Z,8.50
2022-10-03T22:38:25.670Z,8.20
2022-10-03T22:40:55.425Z,7.90
2022-10-03T22:43:24.931Z,7.10
2022-10-03T22:45:56.544Z,7.38
2022-10-03T22:48:33.617Z,7.93
2022-10-03T22:51:03.553Z,7.20
2022-10-03T22:53:35.892Z,7.18
2022-10-03T22:56:42.655Z,7.40
2022-10-03T22:59:31.976Z,7.53
2022-10-03T23:02:02.752Z,7.55
2022-10-03T23:04:50.055Z,7.22
2022-10-03T23:07:26.686Z,7.85
2022-10-03T23:10:26.870Z,8.00
2022-10-03T23:13:00.967Z,7.63
2022-10-03T23:15:30.774Z,7.57
2022-10-03T23:18:08.057Z,8.10
2022-10-03T23:21:03.652Z,7.43
2022-10-03T23:23:36.121Z,7.72
2022-10-03T23:26:26.269Z,8.27
2022-10-03T23:29:00.638Z,7.75
2022-10-03T23:32:06.098Z,8.20
2022-10-03T23:34:40.513Z,7.38
2022-10-03T23:37:14.644Z,7.90
2022-10-03T23:39:55.011Z,8.43
2022-10-03T23:42:46.014Z,7.80
2022-10-03T23:45:19.893Z,8.27
2022-10-03T23:48:14.832Z,8.57
2022-10-03T23:50:47.601Z,8.10
2022-10-03T23:55:57.708Z,7.25
2022-10-03T23:58:31.972Z,7.50
